SAS104 LOWW-EDDM
Flight info
| Callsign | SAS104 |
|---|---|
| Flight time | N/A |
| Altitude | 28000 |
| Route | SOVIL DCT SITNI DCT BAGSI DCT MATIG DCT AMADI Q113 NAPSA NAPSA1B/26L |
| Aircraft | B77W/H-SDE1E2E3FGHIJ2J3J4J5M1RWXY/LB1D1 |
Departure
| Time | N/A |
|---|---|
| Airport | Vienna International Airport (LOWW) |
Arrival
| Time | 2026-05-07 17:28 |
|---|---|
| Airport | Munich Airport (EDDM) |
| Time | Latitude | Longitude | Altitude | Speed | Heading |
|---|---|---|---|---|---|
| 2026-05-07 17:27 | 48.34367 | 11.76883 | 1484 ft | 0 kts | 293° |
| 2026-05-07 17:28 | 48.34368 | 11.76878 | 1485 ft | 1 kts | 293° |
| 2026-05-07 17:28 | 48.34370 | 11.76871 | 1487 ft | 1 kts | 294° |
| 2026-05-07 17:28 | 48.34376 | 11.76852 | 1484 ft | 4 kts | 294° |
| 2026-05-07 17:28 | 48.34393 | 11.76794 | 1484 ft | 8 kts | 294° |
| 2026-05-07 17:29 | 48.34433 | 11.76721 | 1477 ft | 10 kts | 330° |
| 2026-05-07 17:29 | 48.34498 | 11.76701 | 1476 ft | 10 kts | 350° |
| 2026-05-07 17:29 | 48.34562 | 11.76687 | 1480 ft | 9 kts | 352° |
| 2026-05-07 17:29 | 48.34623 | 11.76674 | 1483 ft | 7 kts | 352° |
| 2026-05-07 17:30 | 48.34636 | 11.76671 | 1489 ft | 0 kts | 352° |
| 2026-05-07 17:30 | 48.34637 | 11.76671 | 1489 ft | 0 kts | 352° |
| 2026-05-07 17:30 | 48.34655 | 11.76667 | 1480 ft | 5 kts | 352° |
| 2026-05-07 17:30 | 48.34698 | 11.76661 | 1476 ft | 6 kts | 357° |
| 2026-05-07 17:31 | 48.34738 | 11.76683 | 1483 ft | 6 kts | 41° |
| 2026-05-07 17:31 | 48.34752 | 11.76746 | 1476 ft | 7 kts | 83° |
| 2026-05-07 17:31 | 48.34758 | 11.76814 | 1490 ft | 7 kts | 83° |
| 2026-05-07 17:31 | 48.34764 | 11.76881 | 1490 ft | 7 kts | 83° |
| 2026-05-07 17:32 | 48.34770 | 11.76949 | 1477 ft | 7 kts | 80° |
| 2026-05-07 17:32 | 48.34802 | 11.76964 | 1483 ft | 5 kts | 350° |
| 2026-05-07 17:32 | 48.34839 | 11.76956 | 1481 ft | 5 kts | 352° |
| 2026-05-07 17:32 | 48.34863 | 11.76952 | 1483 ft | 0 kts | 353° |
| 2026-05-07 17:37 | 48.34863 | 11.76951 | 1484 ft | 0 kts | 353° |
| 2026-05-07 17:41 | 48.34863 | 11.76952 | 1483 ft | 0 kts | 353° |